Time;durP1;ratioP1;P1;durP2;ratioP2;P2;SDS_P1;SDS_P2;PMS_P1;PMS_P2;Temp;Humidity;BMP_temperature;BMP_pressure;BME280_temperature;BME280_humidity;BME280_pressure;Samples;Min_cycle;Max_cycle;Signal;HPM_P1;HPM_P2
2024/02/03 00:00:52;;;;;;;6.20;1.50;;;;;;;3.98;52.72;100379.61;111677;1234;57484;-61
2024/02/03 00:03:19;;;;;;;6.90;1.90;;;;;;;4.05;52.68;100378.73;111678;1235;62986;-63
2024/02/03 00:05:45;;;;;;;8.20;2.10;;;;;;;4.14;52.66;100370.81;111367;1239;62067;-64
2024/02/03 00:08:13;;;;;;;5.10;1.40;;;;;;;4.21;52.62;100365.73;107268;1240;64018;-60
2024/02/03 00:10:40;;;;;;;6.30;2.00;;;;;;;4.26;52.61;100357.27;109496;1240;59639;-60
2024/02/03 00:13:07;;;;;;;9.50;2.10;;;;;;;4.25;52.62;100351.41;107220;1240;59625;-62
2024/02/03 00:15:33;;;;;;;11.60;2.80;;;;;;;4.21;52.71;100346.95;111738;1236;64210;-59
2024/02/03 00:18:01;;;;;;;7.60;2.70;;;;;;;4.19;52.82;100343.95;110844;1239;61603;-58
2024/02/03 00:20:28;;;;;;;6.50;2.60;;;;;;;4.17;52.95;100346.30;111679;1235;62731;-61
2024/02/03 00:22:55;;;;;;;10.10;2.70;;;;;;;4.15;52.98;100342.90;111708;1240;57650;-63
2024/02/03 00:25:21;;;;;;;13.60;4.10;;;;;;;4.13;53.03;100339.23;111744;1235;57600;-61
2024/02/03 00:27:48;;;;;;;18.00;5.60;;;;;;;4.09;53.16;100337.16;107443;1240;64704;-61
2024/02/03 00:30:15;;;;;;;8.40;2.80;;;;;;;4.06;53.30;100332.86;111679;1235;62147;-62
2024/02/03 00:32:42;;;;;;;8.40;3.30;;;;;;;4.02;53.49;100323.30;111698;1235;62539;-59
2024/02/03 00:35:09;;;;;;;9.10;2.90;;;;;;;4.00;53.54;100318.06;109496;1240;59315;-60
2024/02/03 00:37:35;;;;;;;13.50;3.40;;;;;;;3.96;53.71;100317.23;107238;1240;59639;-63
2024/02/03 00:40:03;;;;;;;13.40;3.10;;;;;;;3.94;53.80;100317.35;109160;1236;64875;-70
2024/02/03 00:42:30;;;;;;;18.80;3.30;;;;;;;3.94;53.99;100311.95;112154;1231;61496;-60
2024/02/03 00:44:57;;;;;;;9.10;2.50;;;;;;;3.96;54.04;100306.67;112220;1231;64498;-61
2024/02/03 00:47:23;;;;;;;10.00;2.60;;;;;;;3.95;54.10;100306.52;112183;1234;57767;-59
2024/02/03 00:49:50;;;;;;;7.80;1.80;;;;;;;4.00;54.04;100305.77;112194;1231;57617;-61
2024/02/03 00:52:17;;;;;;;6.00;2.50;;;;;;;4.09;54.01;100300.05;112217;1232;62920;-58
2024/02/03 00:54:43;;;;;;;8.20;3.80;;;;;;;4.18;53.91;100297.80;112220;1235;61526;-59
2024/02/03 00:57:10;;;;;;;5.70;2.80;;;;;;;4.26;53.88;100295.80;112181;1231;62578;-57
2024/02/03 00:59:37;;;;;;;9.00;2.90;;;;;;;4.31;53.84;100288.62;109112;1232;59745;-58
2024/02/03 01:02:04;;;;;;;8.50;2.70;;;;;;;4.32;53.81;100279.85;107945;1234;59728;-56
2024/02/03 01:04:31;;;;;;;8.60;3.00;;;;;;;4.32;53.82;100283.87;107703;1234;64618;-59
2024/02/03 01:07:01;;;;;;;7.80;2.70;;;;;;;4.31;53.82;100283.23;107732;1232;61484;-61
2024/02/03 01:09:28;;;;;;;8.60;2.70;;;;;;;4.28;53.84;100284.59;107632;1232;63903;-58
2024/02/03 01:11:54;;;;;;;6.20;2.10;;;;;;;4.24;53.87;100281.30;112152;1232;57662;-63
2024/02/03 01:14:21;;;;;;;9.50;2.10;;;;;;;4.23;53.95;100286.60;112194;1232;57893;-60
2024/02/03 01:16:48;;;;;;;8.80;2.80;;;;;;;4.23;53.99;100291.13;112194;1231;64241;-59
2024/02/03 01:19:15;;;;;;;10.30;3.10;;;;;;;4.23;54.00;100289.73;112208;1232;60099;-60
2024/02/03 01:21:42;;;;;;;6.90;2.30;;;;;;;4.23;53.98;100285.55;112163;1232;64425;-61
2024/02/03 01:24:09;;;;;;;8.90;2.60;;;;;;;4.23;54.03;100278.93;112166;1232;57716;-63
2024/02/03 01:26:36;;;;;;;6.40;2.30;;;;;;;4.25;54.07;100270.35;112182;1231;57361;-58
2024/02/03 01:29:03;;;;;;;7.10;1.90;;;;;;;4.25;54.03;100255.55;112174;1231;64608;-59
2024/02/03 01:31:29;;;;;;;8.30;2.00;;;;;;;4.31;54.03;100246.20;112178;1234;62134;-58
2024/02/03 01:33:57;;;;;;;7.60;1.70;;;;;;;4.42;53.86;100239.34;112176;1232;62727;-57
2024/02/03 01:36:24;;;;;;;8.60;3.00;;;;;;;4.52;53.67;100228.52;112219;1232;58395;-61
2024/02/03 01:38:52;;;;;;;6.30;2.10;;;;;;;4.59;53.58;100226.04;109488;1237;60340;-59
2024/02/03 01:41:19;;;;;;;7.40;2.40;;;;;;;4.63;53.54;100217.97;112155;1230;65227;-60
2024/02/03 01:43:46;;;;;;;6.30;1.80;;;;;;;4.65;53.46;100212.98;112217;1231;61760;-59
2024/02/03 01:46:12;;;;;;;8.00;2.60;;;;;;;4.66;53.40;100208.08;109914;1234;63712;-59
2024/02/03 01:48:39;;;;;;;5.90;1.80;;;;;;;4.67;53.32;100205.41;111948;1231;58757;-58
2024/02/03 01:51:07;;;;;;;10.50;2.10;;;;;;;4.68;53.31;100201.25;112178;1232;59359;-58
2024/02/03 01:53:33;;;;;;;5.30;1.60;;;;;;;4.66;53.31;100192.10;112007;1231;65594;-58
2024/02/03 01:56:00;;;;;;;9.10;2.50;;;;;;;4.67;53.31;100184.27;112170;1232;61386;-58
2024/02/03 01:58:26;;;;;;;6.50;1.40;;;;;;;4.69;53.24;100179.80;110320;1237;62720;-58
2024/02/03 02:00:53;;;;;;;6.50;2.40;;;;;;;4.70;53.30;100170.19;107783;1232;60532;-57
2024/02/03 02:03:20;;;;;;;7.20;2.10;;;;;;;4.70;53.29;100163.55;112199;1232;58366;-58
2024/02/03 02:05:47;;;;;;;10.30;3.40;;;;;;;4.71;53.28;100160.05;111780;1234;63839;-57
2024/02/03 02:08:14;;;;;;;13.70;3.70;;;;;;;4.70;53.27;100151.58;107751;1238;61594;-59
2024/02/03 02:10:41;;;;;;;9.80;2.90;;;;;;;4.69;53.25;100141.53;112158;1232;63758;-57
2024/02/03 02:13:08;;;;;;;10.10;2.40;;;;;;;4.70;53.32;100140.81;112162;1234;58355;-58
2024/02/03 02:15:35;;;;;;;8.80;2.60;;;;;;;4.71;53.37;100137.96;112015;1230;58480;-57
2024/02/03 02:18:02;;;;;;;6.20;1.90;;;;;;;4.71;53.29;100136.74;110222;1232;64761;-57
2024/02/03 02:20:29;;;;;;;10.70;2.80;;;;;;;4.75;53.34;100138.59;107677;1235;61552;-58
2024/02/03 02:22:55;;;;;;;6.90;1.70;;;;;;;4.82;53.24;100141.63;107798;1242;63859;-57
2024/02/03 02:25:22;;;;;;;6.00;2.50;;;;;;;4.89;53.16;100143.33;112177;1232;58509;-59
2024/02/03 02:27:50;;;;;;;8.50;2.10;;;;;;;4.94;53.22;100139.17;112191;1232;58268;-58
2024/02/03 02:30:20;;;;;;;7.50;1.90;;;;;;;4.97;53.31;100130.45;112154;1232;65123;-59
2024/02/03 02:32:47;;;;;;;6.30;2.30;;;;;;;4.98;53.28;100131.96;112183;1232;60351;-58
2024/02/03 02:35:14;;;;;;;8.50;2.90;;;;;;;4.97;53.39;100135.13;112182;1230;64300;-58
2024/02/03 02:37:41;;;;;;;7.10;2.40;;;;;;;4.97;53.43;100129.98;108283;1232;60390;-59
2024/02/03 02:40:08;;;;;;;11.30;3.70;;;;;;;4.94;53.59;100126.98;107732;1232;60525;-58
2024/02/03 02:42:35;;;;;;;6.60;2.10;;;;;;;4.93;53.73;100127.27;112181;1231;65499;-57
2024/02/03 02:45:02;;;;;;;7.90;2.60;;;;;;;4.92;53.82;100121.27;112192;1232;60293;-58
2024/02/03 02:47:30;;;;;;;7.00;1.90;;;;;;;4.88;54.02;100121.83;112205;1234;63700;-58
2024/02/03 02:49:57;;;;;;;7.60;2.40;;;;;;;4.85;54.22;100122.85;112203;1232;58241;-60
2024/02/03 02:52:24;;;;;;;13.10;4.00;;;;;;;4.81;54.53;100119.83;112227;1232;58389;-60
2024/02/03 02:54:51;;;;;;;10.30;3.80;;;;;;;4.78;54.82;100110.80;112197;1230;65116;-62
2024/02/03 02:57:17;;;;;;;5.30;1.70;;;;;;;4.77;55.02;100109.05;112194;1232;60351;-62
2024/02/03 02:59:44;;;;;;;5.90;1.70;;;;;;;4.82;55.13;100099.95;108023;1243;62746;-59
2024/02/03 03:02:11;;;;;;;10.50;3.30;;;;;;;4.78;55.40;100089.23;107976;1244;60580;-59
2024/02/03 03:04:38;;;;;;;6.30;2.80;;;;;;;4.79;55.71;100084.96;107642;1235;60519;-59
2024/02/03 03:07:05;;;;;;;8.00;2.20;;;;;;;4.86;55.75;100079.20;107700;1235;65528;-59
2024/02/03 03:09:31;;;;;;;7.70;2.60;;;;;;;4.87;55.79;100075.28;107674;1232;61885;-59
2024/02/03 03:11:58;;;;;;;4.70;1.80;;;;;;;4.86;55.88;100070.49;107666;1235;63895;-59
2024/02/03 03:14:25;;;;;;;8.00;2.40;;;;;;;4.84;56.01;100063.47;112142;1234;58477;-59
2024/02/03 03:16:52;;;;;;;6.10;2.10;;;;;;;4.83;56.07;100062.66;112192;1237;58690;-59
2024/02/03 03:19:19;;;;;;;10.30;2.50;;;;;;;4.81;56.06;100060.17;112222;1230;64967;-61
2024/02/03 03:21:45;;;;;;;9.40;2.60;;;;;;;4.80;56.13;100054.52;112181;1232;60656;-58
2024/02/03 03:24:13;;;;;;;7.60;1.80;;;;;;;4.78;56.22;100044.37;112180;1232;62706;-59
2024/02/03 03:26:42;;;;;;;7.60;2.60;;;;;;;4.76;56.34;100037.00;112194;1232;58555;-59
2024/02/03 03:29:11;;;;;;;7.80;2.40;;;;;;;4.74;56.39;100033.85;112037;1231;58201;-62
2024/02/03 03:31:41;;;;;;;6.40;2.20;;;;;;;4.71;56.46;100021.17;112204;1232;63844;-62
2024/02/03 03:34:08;;;;;;;5.20;1.40;;;;;;;4.70;56.60;100010.65;112216;1232;60341;-60
2024/02/03 03:36:35;;;;;;;6.60;1.90;;;;;;;4.75;56.52;100004.63;112182;1232;64322;-60
2024/02/03 03:39:01;;;;;;;7.40;1.60;;;;;;;4.81;56.49;99999.70;112201;1231;58539;-64
2024/02/03 03:41:28;;;;;;;7.40;2.40;;;;;;;4.86;56.48;99996.27;112187;1231;58559;-58
2024/02/03 03:43:55;;;;;;;6.60;1.50;;;;;;;4.89;56.39;99989.46;112190;1232;65102;-60
2024/02/03 03:46:21;;;;;;;7.20;2.50;;;;;;;4.90;56.39;99993.06;107833;1232;62629;-59
2024/02/03 03:48:48;;;;;;;7.20;2.60;;;;;;;4.89;56.45;99997.69;107720;1234;63803;-58
2024/02/03 03:51:15;;;;;;;8.60;2.50;;;;;;;4.86;56.43;99999.23;112122;1232;58425;-60
2024/02/03 03:53:42;;;;;;;6.30;1.80;;;;;;;4.83;56.40;99999.60;112049;1232;58314;-57
2024/02/03 03:56:09;;;;;;;5.60;2.10;;;;;;;4.80;56.45;99995.08;112205;1232;65101;-58
2024/02/03 03:58:36;;;;;;;5.80;2.00;;;;;;;4.79;56.57;99987.53;112203;1234;62127;-57
2024/02/03 04:01:03;;;;;;;9.20;3.10;;;;;;;4.78;56.65;99983.92;112211;1230;63899;-59
2024/02/03 04:03:30;;;;;;;8.60;2.30;;;;;;;4.76;56.81;99985.95;112180;1232;58356;-58
2024/02/03 04:05:57;;;;;;;10.60;2.00;;;;;;;4.78;56.81;99978.88;110601;1233;59115;-57
2024/02/03 04:08:23;;;;;;;5.70;1.80;;;;;;;4.83;56.87;99973.16;107743;1235;64953;-58
2024/02/03 04:10:51;;;;;;;5.80;2.10;;;;;;;4.88;57.06;99970.83;107728;1230;61396;-57
2024/02/03 04:13:17;;;;;;;10.90;2.50;;;;;;;4.86;57.29;99954.37;112106;1230;64088;-59
2024/02/03 04:15:45;;;;;;;5.40;2.50;;;;;;;4.82;57.63;99949.46;112178;1234;58414;-62
2024/02/03 04:18:12;;;;;;;8.60;2.70;;;;;;;4.77;57.96;99947.33;108290;1231;59645;-58
2024/02/03 04:20:38;;;;;;;6.20;2.10;;;;;;;4.72;58.33;99940.14;107724;1232;63710;-60
2024/02/03 04:23:05;;;;;;;8.40;3.10;;;;;;;4.64;58.77;99936.31;108069;1234;62071;-57
2024/02/03 04:25:32;;;;;;;6.80;2.50;;;;;;;4.55;59.11;99930.27;107503;1237;64441;-59
2024/02/03 04:27:59;;;;;;;11.50;2.20;;;;;;;4.51;59.37;99931.54;108359;1230;59220;-59
2024/02/03 04:30:25;;;;;;;11.50;3.10;;;;;;;4.55;59.61;99925.74;107813;1234;60451;-63
2024/02/03 04:32:52;;;;;;;9.10;3.50;;;;;;;4.59;59.85;99924.80;107748;1232;63864;-58
2024/02/03 04:35:19;;;;;;;9.70;3.10;;;;;;;4.59;60.04;99923.04;107778;1232;62054;-59
2024/02/03 04:37:46;;;;;;;10.80;3.50;;;;;;;4.55;60.33;99913.59;107680;1232;64538;-58
2024/02/03 04:40:13;;;;;;;9.10;4.30;;;;;;;4.49;60.56;99901.31;111977;1234;59142;-61
2024/02/03 04:42:39;;;;;;;38.20;15.50;;;;;;;4.43;60.81;99891.54;112204;1231;58078;-60
2024/02/03 04:45:07;;;;;;;24.10;10.00;;;;;;;4.41;60.95;99896.17;112195;1235;65499;-66
2024/02/03 04:47:34;;;;;;;21.80;8.10;;;;;;;4.37;61.19;99893.84;112200;1232;59973;-61
2024/02/03 04:50:01;;;;;;;15.70;6.90;;;;;;;4.40;61.12;99883.77;112175;1231;62743;-61
2024/02/03 04:52:28;;;;;;;11.20;4.70;;;;;;;4.45;61.10;99871.31;112190;1234;58657;-61
2024/02/03 04:54:55;;;;;;;12.30;3.30;;;;;;;4.49;61.15;99861.88;112187;1231;58405;-61
2024/02/03 04:57:22;;;;;;;6.20;2.30;;;;;;;4.51;61.24;99852.87;112227;1231;63837;-62
2024/02/03 04:59:49;;;;;;;13.60;5.00;;;;;;;4.49;61.40;99845.17;112195;1231;60345;-63
2024/02/03 05:02:15;;;;;;;10.40;3.80;;;;;;;4.46;61.46;99837.69;112168;1232;62531;-62
2024/02/03 05:04:42;;;;;;;10.50;3.60;;;;;;;4.44;61.53;99836.98;112162;1231;58523;-61
2024/02/03 05:07:09;;;;;;;8.00;3.60;;;;;;;4.41;61.55;99836.47;112205;1230;58391;-60
2024/02/03 05:09:36;;;;;;;7.60;2.80;;;;;;;4.40;61.52;99829.56;112196;1232;63728;-59
2024/02/03 05:12:03;;;;;;;8.00;2.70;;;;;;;4.45;61.45;99822.33;112133;1234;61472;-67
2024/02/03 05:14:29;;;;;;;8.40;2.10;;;;;;;4.50;61.53;99812.83;112166;1230;64962;-67
2024/02/03 05:16:56;;;;;;;8.90;2.60;;;;;;;4.51;61.51;99804.75;112171;1231;58403;-64
2024/02/03 05:19:25;;;;;;;13.30;4.50;;;;;;;4.49;61.67;99796.73;109591;1232;59472;-61
2024/02/03 05:21:52;;;;;;;10.20;2.80;;;;;;;4.45;61.75;99789.13;112132;1234;65690;-62
2024/02/03 05:24:19;;;;;;;7.40;2.50;;;;;;;4.41;61.96;99779.19;112224;1231;61484;-63
2024/02/03 05:26:45;;;;;;;6.70;2.30;;;;;;;4.35;62.03;99772.09;112150;1232;64187;-63
2024/02/03 05:29:12;;;;;;;7.50;3.50;;;;;;;4.32;62.12;99768.65;112128;1232;58327;-60
2024/02/03 05:31:39;;;;;;;8.70;4.10;;;;;;;4.33;62.13;99769.63;112126;1234;58423;-65
2024/02/03 05:34:05;;;;;;;9.70;5.30;;;;;;;4.36;62.15;99758.82;112148;1231;64919;-65
2024/02/03 05:36:32;;;;;;;9.70;4.80;;;;;;;4.38;62.11;99755.91;112139;1230;60229;-63
2024/02/03 05:38:59;;;;;;;6.80;3.40;;;;;;;4.37;62.23;99752.51;112127;1232;62480;-56
2024/02/03 05:41:25;;;;;;;6.70;2.80;;;;;;;4.32;62.37;99750.78;112160;1230;58567;-65
2024/02/03 05:43:52;;;;;;;8.10;2.30;;;;;;;4.31;62.49;99752.77;112163;1232;58501;-60
2024/02/03 05:46:18;;;;;;;10.70;2.50;;;;;;;4.28;62.59;99749.60;112154;1232;65357;-64
2024/02/03 05:48:45;;;;;;;8.60;2.40;;;;;;;4.26;62.56;99739.09;112168;1232;61929;-62
2024/02/03 05:51:12;;;;;;;9.60;2.60;;;;;;;4.30;62.56;99733.17;112182;1230;62495;-62
2024/02/03 05:53:39;;;;;;;7.20;2.10;;;;;;;4.33;62.43;99734.69;112152;1234;58407;-64
2024/02/03 05:56:07;;;;;;;8.10;1.90;;;;;;;4.38;62.47;99726.23;112195;1230;58364;-62
2024/02/03 05:58:34;;;;;;;7.90;2.60;;;;;;;4.44;62.47;99718.89;112197;1231;64943;-66
2024/02/03 06:01:01;;;;;;;8.00;2.60;;;;;;;4.46;62.45;99724.28;112164;1230;60388;-65
2024/02/03 06:03:28;;;;;;;5.20;1.80;;;;;;;4.44;62.48;99727.03;111924;1231;63919;-61
2024/02/03 06:05:55;;;;;;;7.80;1.90;;;;;;;4.40;62.54;99717.96;112247;1231;58364;-65
2024/02/03 06:08:41;;;;;;;9.80;3.10;;;;;;;4.32;62.83;99719.83;112141;1231;58766;-61
2024/02/03 06:11:08;;;;;;;8.40;2.20;;;;;;;4.25;63.20;99717.48;110515;1235;63619;-63
2024/02/03 06:13:35;;;;;;;6.20;1.80;;;;;;;4.24;63.28;99714.09;107690;1235;62088;-62
2024/02/03 06:16:02;;;;;;;10.10;2.60;;;;;;;4.28;63.34;99721.14;107613;1238;64201;-64
2024/02/03 06:18:29;;;;;;;4.60;1.70;;;;;;;4.32;63.41;99715.88;112003;1236;58821;-64
2024/02/03 06:20:56;;;;;;;7.30;2.80;;;;;;;4.35;63.44;99711.64;112211;1230;58474;-61
2024/02/03 06:23:23;;;;;;;6.20;2.00;;;;;;;4.35;63.55;99704.17;112179;1234;64143;-60
2024/02/03 06:25:49;;;;;;;13.20;3.10;;;;;;;4.32;63.65;99724.02;112161;1230;61618;-60
2024/02/03 06:28:16;;;;;;;7.20;2.20;;;;;;;4.26;63.72;99718.99;111622;1231;62567;-60
2024/02/03 06:30:43;;;;;;;7.10;1.80;;;;;;;4.24;63.84;99704.55;109890;1231;60419;-60
2024/02/03 06:33:10;;;;;;;7.00;2.40;;;;;;;4.28;63.68;99708.29;112143;1231;58459;-61
2024/02/03 06:35:37;;;;;;;8.90;2.60;;;;;;;4.33;63.60;99710.43;109259;1232;65166;-58
2024/02/03 06:38:07;;;;;;;6.90;2.90;;;;;;;4.38;63.50;99702.96;107734;1232;61609;-59
2024/02/03 06:40:34;;;;;;;7.30;2.80;;;;;;;4.40;63.55;99692.75;110960;1237;63734;-58
2024/02/03 06:43:00;;;;;;;8.60;2.80;;;;;;;4.39;63.62;99689.88;107648;1235;60640;-60
2024/02/03 06:45:28;;;;;;;12.00;4.10;;;;;;;4.36;63.47;99682.27;107669;1232;60443;-56
2024/02/03 06:47:55;;;;;;;8.10;3.10;;;;;;;4.30;63.61;99675.19;112137;1232;65115;-58
2024/02/03 06:50:21;;;;;;;6.00;2.10;;;;;;;4.29;63.61;99660.64;112186;1232;60049;-60
2024/02/03 06:52:48;;;;;;;10.40;2.70;;;;;;;4.33;63.75;99651.52;112180;1231;64042;-59
2024/02/03 06:55:15;;;;;;;7.30;2.00;;;;;;;4.37;63.83;99645.58;112168;1231;58517;-57
2024/02/03 06:57:42;;;;;;;10.40;5.00;;;;;;;4.42;63.82;99645.05;112169;1231;58588;-59
2024/02/03 07:00:10;;;;;;;11.80;4.30;;;;;;;4.43;63.93;99641.29;111882;1236;65657;-61
2024/02/03 07:02:36;;;;;;;9.10;4.10;;;;;;;4.44;63.93;99639.70;112068;1231;62401;-59
2024/02/03 07:05:04;;;;;;;9.90;2.90;;;;;;;4.41;63.91;99638.46;112200;1234;63952;-59
2024/02/03 07:07:30;;;;;;;7.40;3.20;;;;;;;4.39;63.98;99639.13;112157;1231;58596;-57
2024/02/03 07:09:58;;;;;;;5.80;1.90;;;;;;;4.44;63.96;99630.66;112182;1231;58356;-58
2024/02/03 07:12:26;;;;;;;7.80;2.30;;;;;;;4.51;63.95;99624.97;112201;1231;64102;-60
2024/02/03 07:14:53;;;;;;;14.10;2.40;;;;;;;4.54;64.09;99614.85;112167;1230;61510;-57
2024/02/03 07:17:20;;;;;;;6.40;2.60;;;;;;;4.55;64.22;99602.98;112185;1230;64347;-59
2024/02/03 07:19:47;;;;;;;10.20;3.10;;;;;;;4.54;64.25;99586.91;112165;1231;58489;-58
2024/02/03 07:22:13;;;;;;;5.20;2.00;;;;;;;4.52;64.21;99584.09;112179;1231;58674;-58
2024/02/03 07:24:40;;;;;;;6.40;2.10;;;;;;;4.55;64.09;99588.38;112167;1231;63625;-59
2024/02/03 07:27:07;;;;;;;7.50;2.30;;;;;;;4.62;63.92;99584.13;110918;1230;62017;-58
2024/02/03 07:29:34;;;;;;;8.30;3.00;;;;;;;4.65;63.89;99582.19;107728;1235;63919;-60
2024/02/03 07:32:02;;;;;;;7.50;2.90;;;;;;;4.63;63.89;99584.39;107624;1235;60954;-60
2024/02/03 07:34:29;;;;;;;16.60;3.20;;;;;;;4.58;63.94;99583.32;112167;1230;58488;-60
2024/02/03 07:36:56;;;;;;;5.90;2.00;;;;;;;4.57;63.96;99583.42;112166;1232;63864;-59
2024/02/03 07:39:23;;;;;;;8.50;3.90;;;;;;;4.53;64.24;99580.74;111493;1234;61619;-60
2024/02/03 07:41:50;;;;;;;7.20;2.50;;;;;;;4.56;64.05;99576.66;107747;1235;63983;-60
2024/02/03 07:44:17;;;;;;;7.30;2.50;;;;;;;4.62;64.02;99568.49;112040;1231;58245;-60
2024/02/03 07:46:44;;;;;;;10.00;2.30;;;;;;;4.66;63.95;99559.71;112190;1231;58592;-56
2024/02/03 07:49:10;;;;;;;8.70;3.30;;;;;;;4.65;64.14;99557.32;112219;1230;65053;-58
2024/02/03 07:51:37;;;;;;;6.50;2.80;;;;;;;4.65;64.22;99546.21;112168;1230;61408;-60
2024/02/03 07:54:04;;;;;;;8.10;2.90;;;;;;;4.62;64.45;99547.63;108186;1231;63239;-59
2024/02/03 07:56:31;;;;;;;9.30;2.70;;;;;;;4.59;64.45;99547.82;109419;1234;60423;-60
2024/02/03 07:58:57;;;;;;;6.20;2.80;;;;;;;4.61;64.40;99542.51;107699;1235;60552;-58
2024/02/03 08:01:24;;;;;;;7.80;3.10;;;;;;;4.61;64.56;99536.60;107631;1234;65528;-60
2024/02/03 08:03:51;;;;;;;11.20;3.10;;;;;;;4.59;64.64;99545.02;107670;1234;61801;-58
2024/02/03 08:06:18;;;;;;;13.90;4.70;;;;;;;4.56;64.82;99532.05;107971;1231;63890;-57
2024/02/03 08:08:45;;;;;;;6.60;2.70;;;;;;;4.53;64.84;99525.32;107705;1234;60401;-57
2024/02/03 08:11:12;;;;;;;8.10;2.40;;;;;;;4.47;65.29;99513.94;107760;1234;60459;-59
2024/02/03 08:13:38;;;;;;;6.90;2.80;;;;;;;4.49;65.39;99504.60;107682;1236;65711;-57
2024/02/03 08:16:06;;;;;;;6.60;1.60;;;;;;;4.55;65.24;99510.94;107646;1238;61820;-60
2024/02/03 08:18:34;;;;;;;7.50;2.40;;;;;;;4.61;65.20;99506.20;107562;1236;64393;-59
2024/02/03 08:21:00;;;;;;;7.10;2.30;;;;;;;4.66;65.22;99509.48;108335;1232;60383;-60
2024/02/03 08:23:28;;;;;;;5.60;2.60;;;;;;;4.65;65.20;99506.44;107729;1232;60605;-62
2024/02/03 08:25:55;;;;;;;7.10;3.10;;;;;;;4.63;65.20;99500.66;112170;1231;65659;-60
2024/02/03 08:28:22;;;;;;;7.20;3.10;;;;;;;4.61;65.22;99503.25;109686;1231;60871;-59
2024/02/03 08:30:50;;;;;;;7.10;2.20;;;;;;;4.59;65.17;99497.50;107898;1234;65500;-59
2024/02/03 08:33:17;;;;;;;8.90;2.00;;;;;;;4.65;65.00;99490.98;107747;1231;60471;-59
2024/02/03 08:35:44;;;;;;;8.40;2.40;;;;;;;4.70;64.76;99480.02;107754;1231;60492;-59
2024/02/03 08:38:12;;;;;;;7.30;2.30;;;;;;;4.74;64.70;99470.55;107711;1231;63647;-58
2024/02/03 08:40:39;;;;;;;5.30;2.80;;;;;;;4.75;64.74;99470.46;107792;1237;60434;-60
2024/02/03 08:43:06;;;;;;;7.80;2.40;;;;;;;4.74;64.75;99469.16;107748;1231;65139;-60
2024/02/03 08:45:32;;;;;;;8.90;3.40;;;;;;;4.70;64.79;99466.16;107750;1234;60298;-59
2024/02/03 08:47:59;;;;;;;7.20;2.80;;;;;;;4.65;64.89;99457.75;107733;1234;60452;-61
2024/02/03 08:50:26;;;;;;;6.00;2.60;;;;;;;4.69;64.87;99450.41;107728;1234;65631;-57
2024/02/03 08:52:52;;;;;;;4.80;2.10;;;;;;;4.77;64.81;99446.03;107726;1234;61547;-58
2024/02/03 08:55:19;;;;;;;5.90;1.90;;;;;;;4.86;64.60;99445.05;107633;1232;64208;-60
2024/02/03 08:57:46;;;;;;;6.40;2.70;;;;;;;4.88;64.46;99442.77;110173;1235;60343;-57
2024/02/03 09:00:14;;;;;;;7.20;2.90;;;;;;;4.86;64.44;99441.38;112186;1231;58407;-54
2024/02/03 09:02:41;;;;;;;6.70;2.70;;;;;;;4.84;64.58;99438.39;111831;1231;65652;-62
2024/02/03 09:05:07;;;;;;;6.10;2.80;;;;;;;4.80;64.71;99423.55;107742;1231;61349;-58
2024/02/03 09:07:34;;;;;;;6.00;2.80;;;;;;;4.81;64.83;99419.11;109097;1231;64403;-59
2024/02/03 09:10:03;;;;;;;5.80;3.60;;;;;;;4.89;64.78;99416.50;107724;1234;59156;-59
2024/02/03 09:12:30;;;;;;;6.10;2.40;;;;;;;4.98;64.72;99409.77;107673;1234;59499;-60
2024/02/03 09:14:57;;;;;;;6.60;1.90;;;;;;;5.05;64.68;99400.73;107739;1234;65096;-64
2024/02/03 09:17:24;;;;;;;5.90;2.10;;;;;;;5.07;64.68;99398.30;107721;1231;62673;-60
2024/02/03 09:19:51;;;;;;;6.40;2.20;;;;;;;5.06;64.74;99395.79;107765;1232;63621;-61
2024/02/03 09:22:18;;;;;;;7.20;2.80;;;;;;;5.07;64.86;99393.33;112158;1231;58177;-61
2024/02/03 09:24:45;;;;;;;6.70;2.50;;;;;;;5.05;64.94;99384.91;110873;1231;60449;-59
2024/02/03 09:27:12;;;;;;;6.50;2.40;;;;;;;5.05;65.00;99378.31;107691;1234;65279;-58
2024/02/03 09:29:40;;;;;;;5.40;2.00;;;;;;;5.10;64.98;99372.55;107653;1232;62800;-59
2024/02/03 09:32:08;;;;;;;5.50;2.00;;;;;;;5.19;64.86;99367.02;111840;1231;475416;-60
2024/02/03 09:36:24;;;;;;;6.30;2.50;;;;;;;4.78;66.18;99358.16;101056;1296;607500;-61
2024/02/03 09:38:51;;;;;;;8.60;5.50;;;;;;;5.22;65.15;99353.90;107954;1267;60503;-60
2024/02/03 09:41:17;;;;;;;4.80;1.90;;;;;;;5.26;65.10;99348.09;107981;1267;59051;-66
2024/02/03 09:43:44;;;;;;;7.30;2.20;;;;;;;5.24;65.08;99342.70;108007;1269;64376;-62
2024/02/03 09:46:10;;;;;;;5.70;2.20;;;;;;;5.22;65.11;99339.52;104744;1270;62607;-62
2024/02/03 09:48:37;;;;;;;7.30;2.10;;;;;;;5.26;64.90;99340.92;103166;1267;234605;-61
2024/02/03 09:51:04;;;;;;;6.00;2.10;;;;;;;5.35;64.79;99338.20;103611;1264;59087;-62
2024/02/03 09:53:33;;;;;;;9.50;5.80;;;;;;;5.41;64.69;99333.09;108083;1264;59155;-64
2024/02/03 09:56:00;;;;;;;6.70;2.30;;;;;;;5.44;64.68;99332.64;108095;1266;63924;-61
2024/02/03 09:58:26;;;;;;;6.80;2.20;;;;;;;5.42;64.57;99331.77;108197;1261;60214;-61
2024/02/03 10:00:53;;;;;;;7.00;3.10;;;;;;;5.39;64.53;99320.35;108288;1265;64114;-59
2024/02/03 10:03:20;;;;;;;9.70;6.30;;;;;;;5.35;64.68;99320.23;107015;1263;61431;-61
2024/02/03 10:05:50;;;;;;;9.90;3.10;;;;;;;5.34;64.72;99319.66;103815;1260;61868;-58
2024/02/03 10:08:18;;;;;;;6.50;2.60;;;;;;;5.39;64.61;99312.64;108165;1260;67597;-63
2024/02/03 10:10:51;;;;;;;7.50;2.40;;;;;;;5.49;64.44;99311.61;108308;1261;60619;-61
2024/02/03 10:13:18;;;;;;;7.60;2.30;;;;;;;5.55;64.41;99310.57;108174;1261;62710;-63
2024/02/03 10:15:45;;;;;;;6.60;1.90;;;;;;;5.56;64.55;99305.14;108287;1265;60041;-61
2024/02/03 10:18:12;;;;;;;6.10;2.40;;;;;;;5.53;64.63;99296.79;108311;1265;58441;-62
2024/02/03 10:20:39;;;;;;;10.50;6.70;;;;;;;5.52;64.73;99293.95;108285;1260;64250;-61
2024/02/03 10:23:06;;;;;;;6.80;2.60;;;;;;;5.51;64.78;99279.78;106217;1265;61587;-59
2024/02/03 10:25:34;;;;;;;5.80;1.70;;;;;;;5.57;64.80;99278.81;104319;1267;63738;-58
2024/02/03 10:28:03;;;;;;;4.70;1.70;;;;;;;5.64;64.70;99278.05;103760;1265;59719;-59
2024/02/03 10:30:36;;;;;;;7.80;2.20;;;;;;;5.72;64.64;99268.75;104536;1264;61253;-61
2024/02/03 10:33:04;;;;;;;6.40;2.40;;;;;;;5.76;64.62;99262.53;108315;1260;64373;-63
2024/02/03 10:35:35;;;;;;;6.50;3.00;;;;;;;5.77;64.78;99257.39;105370;1265;61520;-60
2024/02/03 10:38:02;;;;;;;6.80;3.00;;;;;;;5.76;64.80;99254.33;108289;1260;62887;-64
2024/02/03 10:40:33;;;;;;;10.70;6.90;;;;;;;5.76;64.97;99250.15;104709;1264;59741;-63
2024/02/03 10:43:00;;;;;;;8.50;3.80;;;;;;;5.80;64.98;99250.42;108315;1260;59444;-62
2024/02/03 10:45:30;;;;;;;8.10;2.40;;;;;;;5.86;64.71;99248.33;108285;1264;64432;-62
2024/02/03 10:48:01;;;;;;;6.90;2.20;;;;;;;5.90;64.55;99244.55;105836;1263;61611;-60
2024/02/03 10:50:31;;;;;;;6.70;1.90;;;;;;;5.94;64.60;99246.67;108344;1258;62874;-62
2024/02/03 10:53:25;;;;;;;8.50;2.70;;;;;;;6.00;64.56;99247.61;108182;1267;59520;-63
2024/02/03 10:55:55;;;;;;;5.70;1.80;;;;;;;6.05;64.54;99246.55;108369;1260;58783;-64
2024/02/03 10:58:25;;;;;;;5.30;1.90;;;;;;;6.06;64.66;99245.61;108284;1260;65419;-63
2024/02/03 11:00:53;;;;;;;5.80;2.00;;;;;;;6.06;64.78;99240.36;108400;1261;62239;-61
2024/02/03 11:03:21;;;;;;;5.90;2.40;;;;;;;6.07;64.74;99237.34;104336;1263;64133;-62
2024/02/03 11:05:57;;;;;;;4.60;1.70;;;;;;;6.07;64.80;99234.34;108844;1254;58190;-64
2024/02/03 11:08:23;;;;;;;;;;;;;;;6.11;64.71;99238.34;108749;1253;57877;-60
2024/02/03 11:10:50;;;;;;;;;;;;;;;6.17;64.59;99233.39;108907;1256;64311;-61
2024/02/03 11:13:21;;;;;;;5.70;1.90;;;;;;;6.27;64.49;99227.92;108345;1253;60518;-60
2024/02/03 11:15:48;;;;;;;8.20;2.30;;;;;;;6.35;64.55;99222.38;108901;1254;64040;-61
2024/02/03 11:18:15;;;;;;;5.90;1.80;;;;;;;6.42;64.54;99218.00;105415;1254;59525;-60
2024/02/03 11:20:42;;;;;;;4.80;1.50;;;;;;;6.44;64.61;99210.12;108873;1254;59071;-64
2024/02/03 11:23:11;;;;;;;5.60;1.50;;;;;;;6.46;64.71;99219.05;108695;1251;62953;-59
2024/02/03 11:25:41;;;;;;;8.60;4.70;;;;;;;6.47;64.70;99222.06;106597;1254;62699;-60
2024/02/03 11:28:08;;;;;;;4.40;1.30;;;;;;;6.46;64.78;99221.44;108774;1253;63840;-59
2024/02/03 11:30:35;;;;;;;5.70;1.40;;;;;;;6.57;64.52;99221.31;108860;1253;59772;-63